Time;durP1;ratioP1;P1;durP2;ratioP2;P2;SDS_P1;SDS_P2;PMS_P1;PMS_P2;Temp;Humidity;BMP_temperature;BMP_pressure;BME280_temperature;BME280_humidity;BME280_pressure;Samples;Min_cycle;Max_cycle;Signal;HPM_P1;HPM_P2
2022/02/28 00:02:06;;;;;;;;;;;-1.40;99.90;;;;;;4973886;28;19958;-87
2022/02/28 00:04:32;;;;;;;;;;;-1.40;99.90;;;;;;4990244;28;19945;-86
2022/02/28 00:06:58;;;;;;;;;;;-1.40;99.90;;;;;;4990091;28;19918;-87
2022/02/28 00:09:24;;;;;;;;;;;-1.40;99.90;;;;;;4990275;28;20376;-87
2022/02/28 00:11:50;;;;;;;;;;;-1.40;99.90;;;;;;4990020;28;19914;-86
2022/02/28 00:14:15;;;;;;;;;;;-1.40;99.90;;;;;;4989970;28;19914;-87
2022/02/28 00:16:41;;;;;;;;;;;-1.40;99.90;;;;;;4989898;28;19918;-88
2022/02/28 00:19:07;;;;;;;;;;;-1.40;99.90;;;;;;4990090;28;20472;-87
2022/02/28 00:21:33;;;;;;;;;;;-1.50;99.90;;;;;;4990628;28;20001;-86
2022/02/28 00:23:59;;;;;;;;;;;-1.50;99.90;;;;;;4993879;28;19972;-87
2022/02/28 00:26:24;;;;;;;;;;;-1.50;99.90;;;;;;5009718;28;19918;-87
2022/02/28 00:28:50;;;;;;;;;;;-1.40;99.90;;;;;;5009649;28;19922;-87
2022/02/28 00:31:17;;;;;;;;;;;-1.50;99.90;;;;;;5009625;28;19914;-88
2022/02/28 00:33:42;;;;;;;;;;;-1.50;99.90;;;;;;5009067;28;20426;-87
2022/02/28 00:36:08;;;;;;;;;;;-1.50;99.90;;;;;;4992782;28;19922;-87
2022/02/28 00:38:34;;;;;;;;;;;-1.60;99.90;;;;;;5009224;28;19918;-89
2022/02/28 00:41:00;;;;;;;;;;;-1.60;99.90;;;;;;4990872;28;19968;-87
2022/02/28 00:43:25;;;;;;;;;;;-1.60;99.90;;;;;;5004645;28;20010;-86
2022/02/28 00:45:52;;;;;;;;;;;-1.60;99.90;;;;;;5008759;28;19914;-87
2022/02/28 00:48:17;;;;;;;;;;;-1.60;99.90;;;;;;5004848;28;19918;-87
2022/02/28 00:50:43;;;;;;;;;;;-1.50;99.90;;;;;;4982794;28;20008;-87
2022/02/28 00:53:09;;;;;;;;;;;-1.50;99.90;;;;;;5008425;28;20372;-87
2022/02/28 00:55:34;;;;;;;;;;;-1.50;99.90;;;;;;4992235;28;19972;-87
2022/02/28 00:58:00;;;;;;;;;;;-1.50;99.90;;;;;;5006577;28;20357;-88
2022/02/28 01:00:26;;;;;;;;;;;-1.50;99.90;;;;;;5005212;28;19918;-87
2022/02/28 01:02:51;;;;;;;;;;;-1.60;99.90;;;;;;4988769;28;19914;-87
2022/02/28 01:05:18;;;;;;;;;;;-1.60;99.90;;;;;;4988006;28;19918;-87
2022/02/28 01:07:45;;;;;;;;;;;-1.60;99.90;;;;;;4992302;28;19984;-87
2022/02/28 01:10:12;;;;;;;;;;;-1.70;99.90;;;;;;5008724;28;19922;-87
2022/02/28 01:12:37;;;;;;;;;;;-1.70;99.90;;;;;;5008459;28;19913;-87
2022/02/28 01:15:04;;;;;;;;;;;-1.70;99.90;;;;;;5008106;28;19922;-88
2022/02/28 01:17:30;;;;;;;;;;;-1.70;99.90;;;;;;5008230;28;19921;-87
2022/02/28 01:19:55;;;;;;;;;;;-1.70;99.90;;;;;;5008329;28;19913;-87
2022/02/28 01:22:21;;;;;;;;;;;-1.70;99.90;;;;;;5008171;28;19914;-88
2022/02/28 01:24:47;;;;;;;;;;;-1.70;99.90;;;;;;5008045;28;19914;-87
2022/02/28 01:27:12;;;;;;;;;;;-1.70;99.90;;;;;;5008051;28;20300;-87
2022/02/28 01:29:38;;;;;;;;;;;-1.70;99.90;;;;;;5007673;28;19914;-87
2022/02/28 01:32:04;;;;;;;;;;;-1.70;99.90;;;;;;5007839;28;20450;-88
2022/02/28 01:34:29;;;;;;;;;;;-1.70;99.90;;;;;;4991514;28;20446;-88
2022/02/28 01:36:55;;;;;;;;;;;-1.70;99.90;;;;;;4991393;28;19918;-87
2022/02/28 01:39:21;;;;;;;;;;;-1.80;99.90;;;;;;4991345;28;19920;-87
2022/02/28 01:41:46;;;;;;;;;;;-1.80;99.90;;;;;;4991211;28;19918;-88
2022/02/28 01:44:12;;;;;;;;;;;-1.80;99.90;;;;;;4991427;28;19913;-87
2022/02/28 01:46:39;;;;;;;;;;;-1.80;99.90;;;;;;4991757;28;19965;-87
2022/02/28 01:49:05;;;;;;;;;;;-1.80;99.90;;;;;;4991362;28;19964;-87
2022/02/28 01:51:31;;;;;;;;;;;-1.80;99.90;;;;;;4991311;28;19914;-87
2022/02/28 01:53:56;;;;;;;;;;;-1.90;99.90;;;;;;4991364;28;19968;-87
2022/02/28 01:56:22;;;;;;;;;;;-1.90;99.90;;;;;;4958973;28;19922;-88
2022/02/28 01:58:48;;;;;;;;;;;-1.90;99.90;;;;;;4991514;28;19936;-88
2022/02/28 02:01:13;;;;;;;;;;;-1.90;99.90;;;;;;5005131;28;19921;-87
2022/02/28 02:03:39;;;;;;;;;;;-1.90;99.90;;;;;;5006419;28;19920;-87
2022/02/28 02:06:09;;;;;;;;;;;-1.90;99.90;;;;;;5007419;28;19917;-87
2022/02/28 02:08:37;;;;;;;;;;;-2.00;99.90;;;;;;4987837;28;20030;-88
2022/02/28 02:11:03;;;;;;;;;;;-2.00;99.90;;;;;;4988107;28;19964;-88
2022/02/28 02:13:32;;;;;;;;;;;-2.00;99.90;;;;;;4997323;28;20337;-88
2022/02/28 02:15:58;;;;;;;;;;;-2.00;99.90;;;;;;4987484;28;19921;-87
2022/02/28 02:18:24;;;;;;;;;;;-2.00;99.90;;;;;;4993049;28;20296;-87
2022/02/28 02:20:50;;;;;;;;;;;-2.10;99.90;;;;;;5007490;28;19914;-87
2022/02/28 02:23:16;;;;;;;;;;;-2.10;99.90;;;;;;5007393;28;19921;-87
2022/02/28 02:25:43;;;;;;;;;;;-2.10;99.90;;;;;;5007339;28;20368;-87
2022/02/28 02:28:13;;;;;;;;;;;-2.20;99.90;;;;;;4990706;28;19922;-88
2022/02/28 02:30:41;;;;;;;;;;;-2.10;99.90;;;;;;5007185;28;19914;-87
2022/02/28 02:33:08;;;;;;;;;;;-2.10;99.90;;;;;;5007269;28;19921;-87
2022/02/28 02:35:33;;;;;;;;;;;-2.10;99.90;;;;;;4990863;28;20364;-87
2022/02/28 02:37:59;;;;;;;;;;;-2.10;99.90;;;;;;4990587;28;19918;-88
2022/02/28 02:40:25;;;;;;;;;;;-2.20;99.90;;;;;;4990787;28;19964;-88
2022/02/28 02:42:52;;;;;;;;;;;-2.20;99.90;;;;;;4991190;28;19929;-87
2022/02/28 02:45:18;;;;;;;;;;;-2.20;99.90;;;;;;4991029;28;19964;-87
2022/02/28 02:47:44;;;;;;;;;;;-2.10;99.90;;;;;;5006730;28;19949;-87
2022/02/28 02:50:12;;;;;;;;;;;-2.20;99.90;;;;;;4989419;28;19914;-87
2022/02/28 02:52:38;;;;;;;;;;;-2.20;99.90;;;;;;4955063;28;19929;-87
2022/02/28 02:55:05;;;;;;;;;;;-2.20;99.90;;;;;;4962972;28;20020;-87
2022/02/28 02:57:30;;;;;;;;;;;-2.30;99.90;;;;;;4974046;28;19960;-87
2022/02/28 02:59:59;;;;;;;;;;;-2.20;99.90;;;;;;4974431;28;19925;-88
2022/02/28 03:02:30;;;;;;;;;;;-2.20;99.90;;;;;;4990684;28;20424;-87
2022/02/28 03:04:57;;;;;;;;;;;-2.30;99.90;;;;;;4990676;28;20032;-87
2022/02/28 03:07:22;;;;;;;;;;;-2.30;99.90;;;;;;4990406;28;20008;-87
2022/02/28 03:09:48;;;;;;;;;;;-2.30;99.90;;;;;;4974199;28;20433;-88
2022/02/28 03:12:14;;;;;;;;;;;-2.40;99.90;;;;;;5006833;28;19918;-88
2022/02/28 03:14:40;;;;;;;;;;;-2.40;99.90;;;;;;5006811;28;20013;-87
2022/02/28 03:17:07;;;;;;;;;;;-2.40;99.90;;;;;;5006766;28;19913;-87
2022/02/28 03:19:33;;;;;;;;;;;-2.30;99.90;;;;;;4990461;28;19924;-86
2022/02/28 03:21:59;;;;;;;;;;;-2.20;99.90;;;;;;4955252;28;19924;-87
2022/02/28 03:24:25;;;;;;;;;;;-2.20;99.90;;;;;;4987113;28;19910;-87
2022/02/28 03:26:51;;;;;;;;;;;-2.30;99.90;;;;;;4987088;28;19914;-87
2022/02/28 03:29:18;;;;;;;;;;;-2.40;99.90;;;;;;4973673;28;20362;-87
2022/02/28 03:31:43;;;;;;;;;;;-2.40;99.90;;;;;;5008849;28;19914;-87
2022/02/28 03:34:11;;;;;;;;;;;-2.40;99.90;;;;;;4993709;28;19918;-89
2022/02/28 03:36:36;;;;;;;;;;;-2.50;99.90;;;;;;4994090;28;19972;-88
2022/02/28 03:39:11;;;;;;;;;;;-2.50;99.90;;;;;;5010230;28;19920;-87
2022/02/28 03:41:37;;;;;;;;;;;-2.50;99.90;;;;;;5010022;28;19914;-87
2022/02/28 03:44:03;;;;;;;;;;;-2.50;99.90;;;;;;5010410;28;19956;-88
2022/02/28 03:46:32;;;;;;;;;;;-2.50;99.90;;;;;;5010318;28;20001;-87
2022/02/28 03:49:16;;;;;;;;;;;-2.60;99.90;;;;;;5001866;28;20368;-88
2022/02/28 03:51:47;;;;;;;;;;;-2.60;99.90;;;;;;4989619;28;19918;-88
2022/02/28 03:54:24;;;;;;;;;;;-2.60;99.90;;;;;;4988723;28;19918;-87
2022/02/28 03:56:50;;;;;;;;;;;-2.60;99.90;;;;;;4990344;28;19918;-87
2022/02/28 03:59:16;;;;;;;;;;;-2.70;99.90;;;;;;4990010;28;19929;-87
2022/02/28 04:01:42;;;;;;;;;;;-2.70;99.90;;;;;;4990002;28;19926;-87
2022/02/28 04:04:16;;;;;;;;;;;-2.70;99.90;;;;;;4989103;28;20013;-87
2022/02/28 04:06:45;;;;;;;;;;;-2.70;99.90;;;;;;4990510;28;20269;-87
2022/02/28 04:09:12;;;;;;;;;;;-2.60;99.90;;;;;;4996167;28;19926;-88
2022/02/28 04:11:39;;;;;;;;;;;-2.60;99.90;;;;;;4993646;28;19922;-87
2022/02/28 04:14:05;;;;;;;;;;;-2.70;99.90;;;;;;4993193;28;20384;-87
2022/02/28 04:16:30;;;;;;;;;;;-2.70;99.90;;;;;;4993026;28;19921;-88
2022/02/28 04:19:14;;;;;;;;;;;-2.70;99.90;;;;;;4993441;28;20399;-87
2022/02/28 04:21:48;;;;;;;;;;;-2.70;99.90;;;;;;4992880;28;20010;-87
2022/02/28 04:24:14;;;;;;;;;;;-2.80;99.90;;;;;;4992941;28;20270;-87
2022/02/28 04:26:40;;;;;;;;;;;-2.80;99.90;;;;;;4992784;28;20004;-87
2022/02/28 04:29:06;;;;;;;;;;;-2.80;99.90;;;;;;5005267;28;20414;-87
2022/02/28 04:31:33;;;;;;;;;;;-2.80;99.90;;;;;;5009099;28;19910;-87
2022/02/28 04:34:00;;;;;;;;;;;-2.80;99.90;;;;;;5009228;28;19996;-87
2022/02/28 04:36:26;;;;;;;;;;;-2.80;99.90;;;;;;5008861;28;20009;-87
2022/02/28 04:38:52;;;;;;;;;;;-2.80;99.90;;;;;;5008872;28;20004;-87
2022/02/28 04:41:17;;;;;;;;;;;-2.80;99.90;;;;;;4960183;28;19925;-87
2022/02/28 04:43:43;;;;;;;;;;;-2.90;99.90;;;;;;5008978;28;19914;-87
2022/02/28 04:46:09;;;;;;;;;;;-2.80;99.90;;;;;;5008686;28;20380;-87
2022/02/28 04:48:35;;;;;;;;;;;-2.90;99.90;;;;;;5008886;28;19922;-87
2022/02/28 04:51:30;;;;;;;;;;;-2.90;99.90;;;;;;4988983;28;20004;-86
2022/02/28 04:53:56;;;;;;;;;;;-2.80;99.90;;;;;;4976366;28;19918;-87
2022/02/28 04:56:21;;;;;;;;;;;-2.80;99.90;;;;;;5008589;28;20331;-87
2022/02/28 04:58:47;;;;;;;;;;;-2.90;99.90;;;;;;5008450;28;19967;-87
2022/02/28 05:01:17;;;;;;;;;;;-2.90;99.90;;;;;;4977143;28;19953;-88
2022/02/28 05:03:45;;;;;;;;;;;-2.90;99.90;;;;;;5008148;28;20332;-88
2022/02/28 05:06:11;;;;;;;;;;;-2.90;99.90;;;;;;5008271;28;19918;-88
2022/02/28 05:08:41;;;;;;;;;;;-2.90;99.90;;;;;;5005052;28;19918;-87
2022/02/28 05:11:07;;;;;;;;;;;-2.90;99.90;;;;;;5005136;28;19964;-87
2022/02/28 05:13:32;;;;;;;;;;;-2.90;99.90;;;;;;5005262;28;20013;-87
2022/02/28 05:15:59;;;;;;;;;;;-2.90;99.90;;;;;;4988628;28;19914;-87
2022/02/28 05:18:25;;;;;;;;;;;-2.90;99.90;;;;;;4993794;28;19921;-87
2022/02/28 05:20:50;;;;;;;;;;;-2.90;99.90;;;;;;4991853;28;20391;-87
2022/02/28 05:23:16;;;;;;;;;;;-2.90;99.90;;;;;;4991789;28;19958;-87
2022/02/28 05:25:44;;;;;;;;;;;-3.00;99.90;;;;;;5007739;28;20291;-87
2022/02/28 05:28:10;;;;;;;;;;;-3.00;99.90;;;;;;5007838;28;19922;-87
2022/02/28 05:30:36;;;;;;;;;;;-3.00;99.90;;;;;;5007996;28;20012;-86
2022/02/28 05:33:03;;;;;;;;;;;-3.10;99.90;;;;;;4991540;28;19914;-86
2022/02/28 05:35:31;;;;;;;;;;;-3.10;99.90;;;;;;5007597;28;19920;-86
2022/02/28 05:38:06;;;;;;;;;;;-3.00;99.90;;;;;;4976383;28;19964;-87
2022/02/28 05:40:35;;;;;;;;;;;-3.00;99.90;;;;;;5007407;28;19949;-86
2022/02/28 05:43:02;;;;;;;;;;;-3.00;99.90;;;;;;5007650;28;19921;-87
2022/02/28 05:45:27;;;;;;;;;;;-3.00;99.90;;;;;;4975166;28;19918;-87
2022/02/28 05:48:08;;;;;;;;;;;-3.10;99.90;;;;;;4991133;28;19921;-87
2022/02/28 05:50:34;;;;;;;;;;;-3.10;99.90;;;;;;4990921;28;19972;-87
2022/02/28 05:53:03;;;;;;;;;;;-3.10;99.90;;;;;;5007508;28;20025;-87
2022/02/28 05:55:29;;;;;;;;;;;-3.20;99.90;;;;;;5007394;28;19968;-87
2022/02/28 05:57:54;;;;;;;;;;;-3.10;99.90;;;;;;5007247;28;19925;-86
2022/02/28 06:00:20;;;;;;;;;;;-3.20;99.90;;;;;;5007497;28;19925;-86
2022/02/28 06:02:47;;;;;;;;;;;-3.20;99.90;;;;;;4991204;28;20025;-86
2022/02/28 06:05:13;;;;;;;;;;;-3.20;99.90;;;;;;5007416;28;19925;-87
2022/02/28 06:07:38;;;;;;;;;;;-3.20;99.90;;;;;;5007317;28;19921;-87
2022/02/28 06:10:04;;;;;;;;;;;-3.20;99.90;;;;;;5007609;28;20317;-86
2022/02/28 06:12:30;;;;;;;;;;;-3.10;99.90;;;;;;4991125;28;20008;-87
2022/02/28 06:17:36;;;;;;;;;;;-3.10;99.90;;;;;;4993393;28;20462;-80
2022/02/28 06:20:02;;;;;;;;;;;-3.10;99.90;;;;;;4990414;28;19921;-81
2022/02/28 06:22:28;;;;;;;;;;;-3.10;99.90;;;;;;5006997;28;20008;-80
2022/02/28 06:24:55;;;;;;;;;;;-3.10;99.90;;;;;;4979511;28;20411;-81
2022/02/28 06:27:22;;;;;;;;;;;-3.00;99.90;;;;;;4989517;28;19918;-81
2022/02/28 06:29:47;;;;;;;;;;;-3.10;99.90;;;;;;4984694;28;19945;-79
2022/02/28 06:32:13;;;;;;;;;;;-3.00;99.90;;;;;;4994217;28;20029;-80
2022/02/28 06:34:38;;;;;;;;;;;-3.00;99.90;;;;;;4992900;28;19929;-80
2022/02/28 06:37:04;;;;;;;;;;;-3.00;99.90;;;;;;4991485;28;20012;-80
2022/02/28 06:39:29;;;;;;;;;;;-2.90;99.90;;;;;;4957728;28;19925;-80
2022/02/28 06:41:55;;;;;;;;;;;-2.90;99.90;;;;;;4992763;28;19918;-80
2022/02/28 06:44:21;;;;;;;;;;;-2.90;99.90;;;;;;4993826;28;20391;-81
2022/02/28 06:46:46;;;;;;;;;;;-2.90;99.90;;;;;;4993549;28;20284;-79
2022/02/28 06:49:12;;;;;;;;;;;-2.90;99.90;;;;;;4990157;28;19921;-79
2022/02/28 06:51:37;;;;;;;;;;;-2.80;99.90;;;;;;4991937;28;20029;-80
2022/02/28 06:54:03;;;;;;;;;;;-2.80;99.90;;;;;;5000408;28;20430;-80
2022/02/28 06:56:29;;;;;;;;;;;-2.80;99.90;;;;;;4983812;28;19921;-80
2022/02/28 06:58:55;;;;;;;;;;;-2.70;99.90;;;;;;5109672;22;19929;-85
2022/02/28 07:01:21;;;;;;;;;;;-2.70;99.90;;;;;;5012667;28;19944;-85
2022/02/28 07:03:56;;;;;;;;;;;-2.70;99.90;;;;;;5014880;28;20323;-85
2022/02/28 07:06:22;;;;;;;;;;;-2.50;99.90;;;;;;5011028;28;20036;-85
2022/02/28 07:08:49;;;;;;;;;;;-2.20;99.90;;;;;;5012770;28;19932;-85
2022/02/28 07:11:15;;;;;;;;;;;-1.80;99.90;;;;;;5012749;28;19949;-85
2022/02/28 07:13:40;;;;;;;;;;;-1.40;99.90;;;;;;5008252;28;20097;-85
2022/02/28 07:16:06;;;;;;;;;;;-0.90;99.90;;;;;;5012115;28;19924;-85
2022/02/28 07:18:32;;;;;;;;;;;-0.50;99.90;;;;;;5030647;28;19917;-85
2022/02/28 07:20:58;;;;;;;;;;;-0.10;99.90;;;;;;5016222;28;20006;-85
2022/02/28 07:23:23;;;;;;;;;;;0.30;99.90;;;;;;5031167;28;19913;-85
2022/02/28 07:25:49;;;;;;;;;;;0.50;99.90;;;;;;5016818;28;19968;-85
2022/02/28 07:28:14;;;;;;;;;;;0.80;99.90;;;;;;5035805;28;20442;-84
2022/02/28 07:30:40;;;;;;;;;;;1.10;99.90;;;;;;4998340;28;19956;-85
2022/02/28 07:33:06;;;;;;;;;;;1.30;99.90;;;;;;5015241;28;20424;-85
2022/02/28 07:35:33;;;;;;;;;;;1.50;99.90;;;;;;5013487;28;19925;-85
2022/02/28 07:37:58;;;;;;;;;;;1.70;99.90;;;;;;5012967;28;19932;-85
2022/02/28 07:40:24;;;;;;;;;;;1.80;99.90;;;;;;5008971;28;19917;-85
2022/02/28 07:42:50;;;;;;;;;;;1.90;99.90;;;;;;5014797;28;19928;-86
2022/02/28 07:45:16;;;;;;;;;;;1.90;99.90;;;;;;5031956;28;19913;-86
2022/02/28 07:47:42;;;;;;;;;;;2.00;99.90;;;;;;5014808;28;19991;-85
2022/02/28 07:50:08;;;;;;;;;;;2.00;99.90;;;;;;5024809;28;19920;-85
2022/02/28 07:52:34;;;;;;;;;;;2.00;99.90;;;;;;5027919;28;19913;-85
2022/02/28 07:54:59;;;;;;;;;;;2.00;99.90;;;;;;5013800;28;19917;-85
2022/02/28 07:57:25;;;;;;;;;;;2.00;99.90;;;;;;5030818;28;19967;-85
2022/02/28 07:59:50;;;;;;;;;;;2.10;99.90;;;;;;5009552;28;19928;-85
2022/02/28 08:02:16;;;;;;;;;;;2.20;99.90;;;;;;5016688;28;19917;-85
2022/02/28 08:04:41;;;;;;;;;;;2.00;99.90;;;;;;5016869;28;19963;-86
2022/02/28 08:07:07;;;;;;;;;;;2.00;99.90;;;;;;5014595;28;20295;-85
2022/02/28 08:09:34;;;;;;;;;;;2.10;99.90;;;;;;5013411;28;19928;-85
2022/02/28 08:12:00;;;;;;;;;;;2.10;99.90;;;;;;5012977;28;19921;-86
2022/02/28 08:14:26;;;;;;;;;;;2.10;99.90;;;;;;5015548;28;20047;-85
2022/02/28 08:16:52;;;;;;;;;;;2.10;99.90;;;;;;5014802;28;20054;-85
2022/02/28 08:19:17;;;;;;;;;;;2.10;99.90;;;;;;5026888;28;20396;-84
2022/02/28 08:21:43;;;;;;;;;;;2.00;99.90;;;;;;5014687;28;19920;-85
2022/02/28 08:24:09;;;;;;;;;;;2.00;99.90;;;;;;5010707;28;19918;-85
2022/02/28 08:26:35;;;;;;;;;;;2.00;99.90;;;;;;5011989;28;19992;-85
2022/02/28 08:29:00;;;;;;;;;;;2.00;99.90;;;;;;5012691;28;20012;-85
2022/02/28 08:31:26;;;;;;;;;;;2.00;99.90;;;;;;5014057;28;20014;-86
2022/02/28 08:33:52;;;;;;;;;;;1.90;99.90;;;;;;5014669;28;19917;-86
2022/02/28 08:36:18;;;;;;;;;;;1.90;99.90;;;;;;5014061;28;19917;-85
2022/02/28 08:38:43;;;;;;;;;;;1.90;99.90;;;;;;5012443;28;19909;-85
2022/02/28 08:41:09;;;;;;;;;;;1.90;99.90;;;;;;5012521;28;19920;-86
2022/02/28 08:43:35;;;;;;;;;;;1.90;99.90;;;;;;5031296;28;19991;-84
2022/02/28 08:46:01;;;;;;;;;;;2.00;99.90;;;;;;5012994;28;20367;-84
2022/02/28 08:48:27;;;;;;;;;;;2.00;99.90;;;;;;5023412;28;19920;-85
2022/02/28 08:50:52;;;;;;;;;;;2.00;99.90;;;;;;5011002;28;19917;-84
2022/02/28 08:53:18;;;;;;;;;;;2.00;99.90;;;;;;5015813;28;19920;-84
2022/02/28 08:55:44;;;;;;;;;;;2.10;99.90;;;;;;5011157;28;19963;-85
2022/02/28 08:58:10;;;;;;;;;;;2.10;99.90;;;;;;5030432;28;19944;-84
2022/02/28 09:00:35;;;;;;;;;;;2.10;99.90;;;;;;5010480;28;19932;-84
2022/02/28 09:03:06;;;;;;;;;;;2.10;99.90;;;;;;5014218;28;20382;-84
2022/02/28 09:05:35;;;;;;;;;;;2.20;99.90;;;;;;5014409;28;19923;-85
2022/02/28 09:08:01;;;;;;;;;;;2.20;99.90;;;;;;5035473;28;19924;-84
2022/02/28 09:10:26;;;;;;;;;;;2.30;99.90;;;;;;5013926;28;19913;-84
2022/02/28 09:12:52;;;;;;;;;;;2.40;99.90;;;;;;5007358;28;19917;-85
2022/02/28 09:15:18;;;;;;;;;;;2.40;99.90;;;;;;5011267;28;19924;-83
2022/02/28 09:17:44;;;;;;;;;;;2.50;99.90;;;;;;5033003;28;19995;-85
2022/02/28 09:20:10;;;;;;;;;;;2.50;99.90;;;;;;5016889;28;20004;-85
2022/02/28 09:22:35;;;;;;;;;;;2.50;99.90;;;;;;5030881;28;19963;-84
2022/02/28 09:25:01;;;;;;;;;;;2.60;99.90;;;;;;5030042;28;19913;-87
2022/02/28 09:27:27;;;;;;;;;;;2.60;99.90;;;;;;5012953;28;19921;-86
2022/02/28 09:29:53;;;;;;;;;;;2.60;99.90;;;;;;5010905;28;19928;-85
2022/02/28 09:32:19;;;;;;;;;;;2.60;99.90;;;;;;5014704;28;19917;-86
2022/02/28 09:34:44;;;;;;;;;;;2.60;99.90;;;;;;5013251;28;19957;-85
2022/02/28 09:37:10;;;;;;;;;;;2.60;99.90;;;;;;4999773;28;19924;-84
2022/02/28 09:39:36;;;;;;;;;;;2.70;99.90;;;;;;5029604;28;19996;-85
2022/02/28 09:42:20;;;;;;;;;;;2.70;99.90;;;;;;5015923;28;19963;-84
2022/02/28 09:45:21;;;;;;;;;;;2.60;99.90;;;;;;5030415;28;19921;-83
2022/02/28 09:48:06;;;;;;;;;;;2.60;99.90;;;;;;5020068;28;19936;-87
2022/02/28 09:51:04;;;;;;;;;;;2.80;99.90;;;;;;4990493;28;19917;-86
2022/02/28 09:53:50;;;;;;;;;;;2.90;99.90;;;;;;5020326;28;19928;-85
2022/02/28 09:56:29;;;;;;;;;;;3.10;99.90;;;;;;5010844;28;20342;-85
2022/02/28 09:59:13;;;;;;;;;;;3.30;99.90;;;;;;5025209;28;19928;-85
2022/02/28 10:01:45;;;;;;;;;;;3.30;99.90;;;;;;5011893;28;19920;-86
2022/02/28 10:04:12;;;;;;;;;;;3.40;99.90;;;;;;5009828;28;19921;-84
2022/02/28 10:06:38;;;;;;;;;;;3.50;99.90;;;;;;5016611;28;19909;-85
2022/02/28 10:09:05;;;;;;;;;;;3.50;99.90;;;;;;5009884;28;19988;-86
2022/02/28 10:11:33;;;;;;;;;;;3.50;99.90;;;;;;5017012;28;20560;-87
2022/02/28 10:14:00;;;;;;;;;;;3.60;99.90;;;;;;5007995;28;19960;-86
2022/02/28 10:16:30;;;;;;;;;;;3.60;99.90;;;;;;5011802;28;19917;-85
2022/02/28 10:18:55;;;;;;;;;;;3.70;99.90;;;;;;5027444;28;19927;-86
2022/02/28 10:21:54;;;;;;;;;;;3.80;99.90;;;;;;5031982;28;19999;-85
2022/02/28 10:24:25;;;;;;;;;;;3.90;99.90;;;;;;4978080;28;19913;-86
2022/02/28 10:27:03;;;;;;;;;;;4.00;99.90;;;;;;5012901;28;19920;-85
2022/02/28 10:29:52;;;;;;;;;;;4.00;99.90;;;;;;5012472;28;20553;-85
2022/02/28 10:32:46;;;;;;;;;;;4.00;99.90;;;;;;5034861;28;19947;-85
2022/02/28 10:38:36;;;;;;;;;;;4.10;99.90;;;;;;4981704;28;20024;-86
2022/02/28 10:41:04;;;;;;;;;;;4.10;99.90;;;;;;5008234;28;20007;-85
2022/02/28 10:43:33;;;;;;;;;;;4.20;99.90;;;;;;5018408;28;19924;-86
2022/02/28 10:46:11;;;;;;;;;;;4.30;99.90;;;;;;5015498;28;19913;-86
2022/02/28 10:48:37;;;;;;;;;;;4.30;99.90;;;;;;5029587;28;20000;-86
2022/02/28 10:51:12;;;;;;;;;;;4.40;99.90;;;;;;5016257;28;19952;-87
2022/02/28 10:53:38;;;;;;;;;;;4.30;99.90;;;;;;5019548;28;19914;-86
2022/02/28 10:56:03;;;;;;;;;;;4.40;99.90;;;;;;5015623;28;19917;-86
2022/02/28 10:58:30;;;;;;;;;;;4.50;99.90;;;;;;4996601;28;19921;-86
2022/02/28 11:00:55;;;;;;;;;;;4.60;99.90;;;;;;5014941;28;19965;-86
2022/02/28 11:03:22;;;;;;;;;;;4.60;99.90;;;;;;5033804;28;20050;-86
2022/02/28 11:05:51;;;;;;;;;;;4.70;99.90;;;;;;5035340;28;20341;-86
2022/02/28 11:08:18;;;;;;;;;;;4.80;99.90;;;;;;5015702;28;19921;-85
2022/02/28 11:10:44;;;;;;;;;;;4.80;99.90;;;;;;5013785;28;19913;-87
2022/02/28 11:13:09;;;;;;;;;;;4.80;99.90;;;;;;5014252;28;19960;-86
2022/02/28 11:15:35;;;;;;;;;;;4.80;99.90;;;;;;5009431;28;19925;-87
2022/02/28 11:18:01;;;;;;;;;;;4.90;99.90;;;;;;5014647;28;20048;-87
2022/02/28 11:20:27;;;;;;;;;;;5.00;99.90;;;;;;5016704;28;19932;-86
2022/02/28 11:22:53;;;;;;;;;;;5.00;99.90;;;;;;5017593;28;19966;-86
2022/02/28 11:25:19;;;;;;;;;;;5.00;99.90;;;;;;5033196;28;19913;-86
2022/02/28 11:27:46;;;;;;;;;;;5.10;99.90;;;;;;4998801;28;19925;-86
2022/02/28 11:30:23;;;;;;;;;;;5.10;99.50;;;;;;5013281;28;20011;-87
2022/02/28 11:32:53;;;;;;;;;;;5.20;98.50;;;;;;5002413;28;19971;-86
2022/02/28 11:35:37;;;;;;;;;;;5.20;98.10;;;;;;5015338;28;20326;-86
2022/02/28 11:38:32;;;;;;;;;;;5.30;98.60;;;;;;5012351;28;20073;-86
2022/02/28 11:41:03;;;;;;;;;;;5.40;99.60;;;;;;5020987;28;20279;-87
2022/02/28 11:43:29;;;;;;;;;;;5.40;99.20;;;;;;5032745;28;19913;-87
2022/02/28 11:45:58;;;;;;;;;;;5.50;96.40;;;;;;5014973;28;19921;-86
2022/02/28 11:48:24;;;;;;;;;;;5.60;97.70;;;;;;5014497;28;19921;-87
2022/02/28 11:50:50;;;;;;;;;;;5.60;97.80;;;;;;5013270;28;20403;-86
2022/02/28 11:53:35;;;;;;;;;;;5.70;97.00;;;;;;5010844;28;19913;-87
2022/02/28 11:56:02;;;;;;;;;;;5.80;98.90;;;;;;5012358;28;19913;-88
2022/02/28 11:58:27;;;;;;;;;;;5.90;99.40;;;;;;5030490;28;19916;-86
2022/02/28 12:01:10;;;;;;;;;;;5.90;96.50;;;;;;5012929;28;20330;-87
2022/02/28 12:03:36;;;;;;;;;;;5.90;98.70;;;;;;4999943;28;19921;-87
2022/02/28 12:06:03;;;;;;;;;;;5.80;98.90;;;;;;5014188;28;19967;-87
2022/02/28 12:08:33;;;;;;;;;;;5.80;96.00;;;;;;4997271;28;19936;-88
2022/02/28 12:11:14;;;;;;;;;;;5.80;95.90;;;;;;4999731;28;19924;-85
2022/02/28 12:13:40;;;;;;;;;;;5.90;94.90;;;;;;5015849;28;20394;-86
2022/02/28 12:17:30;;;;;;;;;;;5.90;94.20;;;;;;5011695;23;19925;-78
2022/02/28 12:19:13;;;;;;;;;;;6.00;91.90;;;;;;5028398;28;20004;-79
2022/02/28 12:21:39;;;;;;;;;;;5.90;95.50;;;;;;5030343;28;19927;-79
2022/02/28 12:24:08;;;;;;;;;;;5.90;91.50;;;;;;5033590;28;20404;-78
2022/02/28 12:26:37;;;;;;;;;;;6.00;90.90;;;;;;5016081;28;20032;-76
2022/02/28 12:29:11;;;;;;;;;;;6.10;90.70;;;;;;5030084;28;19929;-77
2022/02/28 12:31:40;;;;;;;;;;;6.10;91.20;;;;;;5031229;28;19952;-78
2022/02/28 12:34:10;;;;;;;;;;;6.20;90.50;;;;;;5031959;28;19933;-79
2022/02/28 12:36:37;;;;;;;;;;;6.30;85.20;;;;;;5029779;28;20004;-78
2022/02/28 12:39:07;;;;;;;;;;;6.30;89.90;;;;;;5031304;28;19913;-77
2022/02/28 12:41:41;;;;;;;;;;;6.40;85.60;;;;;;5026742;28;20252;-80
2022/02/28 12:44:07;;;;;;;;;;;6.40;85.00;;;;;;5044436;28;20427;-79
2022/02/28 12:46:38;;;;;;;;;;;6.50;86.00;;;;;;5028017;28;19909;-77
2022/02/28 12:49:04;;;;;;;;;;;6.50;84.50;;;;;;5026590;28;19917;-79
2022/02/28 12:51:31;;;;;;;;;;;6.50;85.30;;;;;;5031628;28;19921;-79
2022/02/28 12:54:17;;;;;;;;;;;6.40;86.60;;;;;;5034363;28;20009;-78
2022/02/28 12:56:44;;;;;;;;;;;6.50;82.80;;;;;;5030948;28;20000;-78
2022/02/28 12:59:10;;;;;;;;;;;6.60;79.60;;;;;;5028943;28;19920;-78
2022/02/28 13:01:35;;;;;;;;;;;6.50;79.30;;;;;;5027887;28;19917;-78
2022/02/28 13:04:04;;;;;;;;;;;6.50;84.50;;;;;;5041273;28;19917;-77
2022/02/28 13:06:31;;;;;;;;;;;6.40;83.20;;;;;;5032643;28;20291;-79
2022/02/28 13:09:16;;;;;;;;;;;6.50;80.50;;;;;;5029780;28;20545;-79
2022/02/28 13:11:43;;;;;;;;;;;6.60;84.20;;;;;;5030131;23;20008;-77
2022/02/28 13:14:09;;;;;;;;;;;6.60;80.30;;;;;;5030483;28;19917;-77
2022/02/28 13:16:39;;;;;;;;;;;6.60;78.80;;;;;;5019075;28;20371;-77
2022/02/28 13:19:06;;;;;;;;;;;6.70;78.90;;;;;;5018352;28;19963;-78
2022/02/28 13:21:42;;;;;;;;;;;6.70;80.20;;;;;;5027690;28;19978;-77
2022/02/28 13:24:08;;;;;;;;;;;6.70;78.50;;;;;;5018159;28;20390;-77
2022/02/28 13:26:34;;;;;;;;;;;6.80;76.20;;;;;;5032593;28;19920;-78
2022/02/28 13:29:00;;;;;;;;;;;6.80;78.70;;;;;;5031060;28;20023;-77
2022/02/28 13:31:27;;;;;;;;;;;6.90;78.70;;;;;;5028802;28;20393;-77
2022/02/28 13:33:53;;;;;;;;;;;6.90;83.10;;;;;;5017374;28;20315;-77
2022/02/28 13:36:18;;;;;;;;;;;7.00;81.80;;;;;;5033418;28;19917;-77
2022/02/28 13:38:44;;;;;;;;;;;7.00;82.70;;;;;;5026297;28;19917;-77
2022/02/28 13:41:10;;;;;;;;;;;7.00;80.30;;;;;;5031756;28;20330;-78
2022/02/28 13:43:36;;;;;;;;;;;7.10;76.90;;;;;;5029565;28;19940;-77
2022/02/28 13:46:02;;;;;;;;;;;7.00;75.80;;;;;;5027369;28;20394;-77
2022/02/28 13:48:29;;;;;;;;;;;7.00;77.70;;;;;;5012528;28;19917;-77
2022/02/28 13:50:56;;;;;;;;;;;7.00;74.60;;;;;;5011586;28;19956;-77
2022/02/28 13:53:22;;;;;;;;;;;7.00;74.70;;;;;;5025185;28;19914;-77
2022/02/28 13:55:49;;;;;;;;;;;7.00;74.90;;;;;;5029685;28;20028;-77
2022/02/28 13:58:15;;;;;;;;;;;7.10;83.10;;;;;;5030834;28;20517;-77
2022/02/28 14:00:51;;;;;;;;;;;7.10;75.20;;;;;;5028740;28;19924;-77
2022/02/28 14:03:19;;;;;;;;;;;7.20;75.20;;;;;;5029598;28;20378;-77
2022/02/28 14:05:48;;;;;;;;;;;7.10;72.60;;;;;;5029728;28;19913;-75
2022/02/28 14:08:33;;;;;;;;;;;7.00;69.00;;;;;;5030842;28;20423;-77
2022/02/28 14:11:05;;;;;;;;;;;6.90;71.40;;;;;;5029592;28;19921;-77
2022/02/28 14:13:33;;;;;;;;;;;6.80;73.10;;;;;;5028442;28;19917;-76
2022/02/28 14:16:16;;;;;;;;;;;6.90;70.70;;;;;;5030433;28;20000;-78
2022/02/28 14:18:58;;;;;;;;;;;6.90;70.20;;;;;;5025408;28;19924;-77
2022/02/28 14:21:28;;;;;;;;;;;6.70;70.30;;;;;;5029950;28;19960;-77
2022/02/28 14:24:13;;;;;;;;;;;6.60;74.50;;;;;;5026068;28;19974;-77
2022/02/28 14:26:57;;;;;;;;;;;6.60;69.70;;;;;;5030746;28;20303;-77
2022/02/28 14:29:37;;;;;;;;;;;6.50;75.20;;;;;;5030858;28;19917;-77
2022/02/28 14:32:11;;;;;;;;;;;6.60;70.30;;;;;;5030368;28;19917;-78
2022/02/28 14:34:38;;;;;;;;;;;6.70;66.40;;;;;;5027666;28;19913;-76
2022/02/28 14:37:03;;;;;;;;;;;6.70;69.20;;;;;;5033778;28;19924;-76